createdAt,value
2018-03-02T00:00:49.860Z,997.46
2018-03-02T00:01:59.578Z,997.48
2018-03-02T00:03:09.030Z,997.49
2018-03-02T00:04:18.746Z,997.44
2018-03-02T00:05:28.470Z,997.5
2018-03-02T00:06:38.464Z,997.47
2018-03-02T00:07:48.451Z,997.47
2018-03-02T00:08:58.171Z,997.47
2018-03-02T00:10:07.898Z,997.48
2018-03-02T00:11:17.609Z,997.53
2018-03-02T00:12:27.607Z,997.45
2018-03-02T00:13:37.371Z,997.45
2018-03-02T00:14:47.360Z,997.39
2018-03-02T00:15:57.345Z,997.42
2018-03-02T00:17:07.335Z,997.36
2018-03-02T00:18:17.050Z,997.42
2018-03-02T00:19:26.764Z,997.33
2018-03-02T00:20:35.945Z,997.27
2018-03-02T00:21:45.932Z,997.3
2018-03-02T00:22:55.644Z,997.27
2018-03-02T00:24:05.638Z,997.29
2018-03-02T00:25:15.354Z,997.28
2018-03-02T00:26:25.072Z,997.25
2018-03-02T00:27:35.059Z,997.22
2018-03-02T00:28:44.777Z,997.17
2018-03-02T00:29:54.754Z,997.21
2018-03-02T00:31:04.483Z,997.23
2018-03-02T00:32:14.464Z,997.18
2018-03-02T00:33:24.485Z,997.2
2018-03-02T00:34:34.467Z,997.16
2018-03-02T00:35:44.186Z,997.23
2018-03-02T00:36:54.166Z,997.12
2018-03-02T00:38:04.150Z,997.15
2018-03-02T00:39:13.860Z,997.16
2018-03-02T00:40:23.843Z,997.15
2018-03-02T00:41:33.825Z,997.13
2018-03-02T00:42:43.642Z,997.16
2018-03-02T00:43:53.621Z,997.11
2018-03-02T00:45:03.612Z,997.12
2018-03-02T00:46:13.386Z,997.11
2018-03-02T00:47:23.382Z,997.09
2018-03-02T00:48:33.093Z,997.13
2018-03-02T00:49:42.544Z,997.14
2018-03-02T00:50:52.536Z,997.14
2018-03-02T00:52:02.514Z,997.1
2018-03-02T00:53:11.960Z,997.06
2018-03-02T00:54:22.045Z,997.06
2018-03-02T00:55:31.220Z,997.03
2018-03-02T00:56:40.934Z,997.03
2018-03-02T00:57:50.915Z,997.06
2018-03-02T00:59:00.895Z,997.06
2018-03-02T01:00:10.885Z,997.02
2018-03-02T01:01:20.334Z,997.03
2018-03-02T01:02:30.055Z,996.95
2018-03-02T01:03:39.495Z,997.06
2018-03-02T01:04:49.209Z,997.07
2018-03-02T01:05:59.192Z,996.91
2018-03-02T01:07:08.916Z,996.89
2018-03-02T01:08:18.629Z,996.95
2018-03-02T01:09:28.344Z,996.98
2018-03-02T01:10:38.065Z,996.87
2018-03-02T01:11:47.778Z,996.82
2018-03-02T01:12:57.484Z,996.91
2018-03-02T01:14:07.462Z,996.8
2018-03-02T01:15:17.438Z,996.84
2018-03-02T01:16:27.421Z,996.79
2018-03-02T01:17:37.404Z,996.76
2018-03-02T01:18:47.110Z,996.82
2018-03-02T01:19:57.087Z,996.74
2018-03-02T01:21:07.065Z,996.73
2018-03-02T01:22:16.513Z,996.75
2018-03-02T01:23:26.222Z,996.72
2018-03-02T01:24:35.946Z,996.71
2018-03-02T01:25:45.662Z,996.69
2018-03-02T01:26:55.101Z,996.68
2018-03-02T01:28:05.086Z,996.68
2018-03-02T01:29:14.797Z,996.62
2018-03-02T01:30:24.829Z,996.68
2018-03-02T01:31:34.809Z,996.71
2018-03-02T01:32:44.795Z,996.77
2018-03-02T01:33:54.238Z,996.74
2018-03-02T01:35:04.220Z,996.73
2018-03-02T01:36:13.935Z,996.72
2018-03-02T01:37:23.667Z,996.72
2018-03-02T01:38:33.648Z,996.75
2018-03-02T01:39:43.367Z,996.75
2018-03-02T01:40:53.348Z,996.73
2018-03-02T01:42:03.058Z,996.7
2018-03-02T01:43:13.040Z,996.65
2018-03-02T01:44:23.022Z,996.62
2018-03-02T01:45:32.735Z,996.62
2018-03-02T01:46:42.767Z,996.68
2018-03-02T01:47:52.745Z,996.61
2018-03-02T01:49:02.451Z,996.57
2018-03-02T01:50:12.441Z,996.59
2018-03-02T01:51:22.420Z,996.59
2018-03-02T01:52:32.134Z,996.55
2018-03-02T01:53:42.112Z,996.55
2018-03-02T01:54:52.100Z,996.52
2018-03-02T01:56:02.087Z,996.53
2018-03-02T01:57:11.533Z,996.52
2018-03-02T01:58:21.248Z,996.47
2018-03-02T01:59:30.695Z,996.45
2018-03-02T02:00:40.142Z,996.46
2018-03-02T02:01:49.593Z,996.46
2018-03-02T02:02:59.570Z,996.45
2018-03-02T02:04:08.750Z,996.4
2018-03-02T02:05:18.732Z,996.34
2018-03-02T02:06:28.182Z,996.37
2018-03-02T02:07:37.894Z,996.36
2018-03-02T02:08:47.869Z,996.35
2018-03-02T02:09:57.582Z,996.32
2018-03-02T02:11:07.302Z,996.27
2018-03-02T02:12:17.016Z,996.31
2018-03-02T02:13:26.198Z,996.23
2018-03-02T02:14:36.182Z,996.31
2018-03-02T02:15:45.897Z,996.26
2018-03-02T02:16:55.608Z,996.4
2018-03-02T02:18:05.313Z,996.18
2018-03-02T02:19:15.030Z,996.22
2018-03-02T02:20:24.741Z,996.23
2018-03-02T02:21:33.920Z,996.23
2018-03-02T02:22:43.909Z,996.17
2018-03-02T02:23:53.894Z,996.2
2018-03-02T02:25:03.876Z,996.11
2018-03-02T02:26:13.598Z,996.12
2018-03-02T02:27:23.574Z,996.16
2018-03-02T02:28:33.291Z,996.1
2018-03-02T02:29:43.270Z,996.07
2018-03-02T02:30:53.251Z,996.09
2018-03-02T02:32:02.971Z,996.06
2018-03-02T02:33:12.545Z,996.05
2018-03-02T02:34:22.538Z,996.03
2018-03-02T02:35:31.998Z,996.08
2018-03-02T02:36:41.719Z,995.99
2018-03-02T02:37:51.706Z,995.98
2018-03-02T02:39:01.798Z,995.99
2018-03-02T02:40:11.519Z,995.98
2018-03-02T02:41:21.692Z,996
2018-03-02T02:42:31.414Z,996.05
2018-03-02T02:43:41.400Z,995.97
2018-03-02T02:44:51.383Z,995.99
2018-03-02T02:46:01.380Z,996.01
2018-03-02T02:47:11.371Z,995.95
2018-03-02T02:48:21.367Z,995.95
2018-03-02T02:49:31.085Z,996
2018-03-02T02:50:41.072Z,995.94
2018-03-02T02:51:51.087Z,996
2018-03-02T02:53:01.076Z,995.97
2018-03-02T02:54:11.073Z,995.94
2018-03-02T02:55:21.053Z,995.88
2018-03-02T02:56:30.780Z,995.9
2018-03-02T02:57:40.515Z,995.92
2018-03-02T02:58:50.228Z,995.86
2018-03-02T03:00:00.211Z,995.83
2018-03-02T03:01:09.669Z,995.82
2018-03-02T03:02:19.673Z,995.72
2018-03-02T03:03:29.666Z,995.73
2018-03-02T03:04:39.657Z,995.79
2018-03-02T03:05:49.649Z,995.75
2018-03-02T03:06:59.365Z,995.75
2018-03-02T03:08:08.807Z,995.76
2018-03-02T03:09:18.786Z,995.75
2018-03-02T03:10:28.513Z,995.73
2018-03-02T03:11:38.238Z,995.75
2018-03-02T03:12:48.217Z,995.78
2018-03-02T03:13:58.202Z,995.65
2018-03-02T03:15:08.187Z,995.69
2018-03-02T03:16:18.168Z,995.7
2018-03-02T03:17:27.889Z,995.68
2018-03-02T03:18:37.867Z,995.7
2018-03-02T03:19:47.830Z,995.74
2018-03-02T03:20:57.809Z,995.73
2018-03-02T03:22:07.522Z,995.66
2018-03-02T03:23:17.233Z,995.6
2018-03-02T03:24:27.214Z,995.66
2018-03-02T03:25:37.195Z,995.65
2018-03-02T03:26:46.907Z,995.68
2018-03-02T03:27:56.621Z,995.69
2018-03-02T03:29:06.340Z,995.67
2018-03-02T03:30:16.330Z,995.62
2018-03-02T03:31:26.061Z,995.62
2018-03-02T03:32:35.530Z,995.64
2018-03-02T03:33:45.241Z,995.6
2018-03-02T03:34:54.684Z,995.62
2018-03-02T03:36:04.665Z,995.59
2018-03-02T03:37:14.385Z,995.57
2018-03-02T03:38:23.983Z,995.53
2018-03-02T03:39:33.692Z,995.55
2018-03-02T03:40:43.672Z,995.5
2018-03-02T03:41:53.650Z,995.5
2018-03-02T03:43:03.632Z,995.49
2018-03-02T03:44:13.345Z,995.57
2018-03-02T03:45:22.789Z,995.56
2018-03-02T03:46:32.504Z,995.55
2018-03-02T03:47:42.482Z,995.49
2018-03-02T03:48:52.191Z,995.52
2018-03-02T03:50:01.896Z,995.52
2018-03-02T03:51:11.616Z,995.47
2018-03-02T03:52:21.785Z,995.46
2018-03-02T03:53:31.764Z,995.44
2018-03-02T03:54:41.740Z,995.43
2018-03-02T03:55:51.182Z,995.34
2018-03-02T03:57:00.892Z,995.32
2018-03-02T03:58:10.342Z,995.32
2018-03-02T03:59:20.060Z,995.32
2018-03-02T04:04:29.885Z,995.26
2018-03-02T04:05:39.863Z,995.26
2018-03-02T04:06:49.577Z,995.24
2018-03-02T04:07:59.556Z,995.2
2018-03-02T04:09:09.539Z,995.2
2018-03-02T04:10:19.252Z,995.15
2018-03-02T04:11:29.233Z,995.2
2018-03-02T04:12:39.227Z,995.18
2018-03-02T04:13:48.945Z,995.1
2018-03-02T04:14:58.664Z,995.14
2018-03-02T04:16:08.643Z,995.08
2018-03-02T04:17:18.619Z,995.08
2018-03-02T04:18:27.798Z,995.09
2018-03-02T04:19:37.516Z,995.09
2018-03-02T04:20:47.500Z,995.08
2018-03-02T04:21:57.480Z,995.11
2018-03-02T04:23:06.927Z,995.15
2018-03-02T04:24:16.710Z,995.11
2018-03-02T04:25:26.729Z,995.12
2018-03-02T04:26:36.806Z,995.1
2018-03-02T04:27:46.794Z,995.04
2018-03-02T04:28:56.504Z,995.04
2018-03-02T04:30:06.498Z,995
2018-03-02T04:31:16.484Z,995.01
2018-03-02T04:32:26.197Z,994.96
2018-03-02T04:33:36.174Z,994.96
2018-03-02T04:34:46.158Z,994.94
2018-03-02T04:35:56.140Z,994.94
2018-03-02T04:37:05.583Z,994.89
2018-03-02T04:38:15.389Z,994.89
2018-03-02T04:39:25.105Z,994.86
2018-03-02T04:40:35.088Z,994.88
2018-03-02T04:41:44.264Z,994.88
2018-03-02T04:42:54.241Z,994.87
2018-03-02T04:44:03.688Z,994.86
2018-03-02T04:45:13.403Z,994.82
2018-03-02T04:46:23.119Z,994.79
2018-03-02T04:47:33.151Z,994.81
2018-03-02T04:48:42.861Z,994.72
2018-03-02T04:49:52.835Z,994.69
2018-03-02T04:51:02.832Z,994.67
2018-03-02T04:52:12.861Z,994.68
2018-03-02T04:53:22.689Z,994.68
2018-03-02T04:54:32.407Z,994.62
2018-03-02T04:55:42.386Z,994.62
2018-03-02T04:56:52.104Z,994.63
2018-03-02T04:58:01.551Z,994.67
2018-03-02T04:59:11.531Z,994.66
2018-03-02T05:00:21.240Z,994.62
2018-03-02T05:01:31.236Z,994.63
2018-03-02T05:02:40.951Z,994.63
2018-03-02T05:03:50.946Z,994.66
2018-03-02T05:05:00.668Z,994.69
2018-03-02T05:06:10.388Z,994.65
2018-03-02T05:07:20.377Z,994.58
2018-03-02T05:08:30.353Z,994.64
2018-03-02T05:09:40.355Z,994.63
2018-03-02T05:10:50.339Z,994.56
2018-03-02T05:12:00.315Z,994.57
2018-03-02T05:13:10.043Z,994.55
2018-03-02T05:14:19.492Z,994.56
2018-03-02T05:15:29.464Z,994.49
2018-03-02T05:16:39.457Z,994.53
2018-03-02T05:17:49.460Z,994.51
2018-03-02T05:18:59.470Z,994.51
2018-03-02T05:20:09.247Z,994.49
2018-03-02T05:21:19.244Z,994.44
2018-03-02T05:22:29.227Z,994.43
2018-03-02T05:23:38.938Z,994.39
2018-03-02T05:24:48.917Z,994.36
2018-03-02T05:25:58.896Z,994.36
2018-03-02T05:27:08.875Z,994.33
2018-03-02T05:28:18.860Z,994.3
2018-03-02T05:29:28.894Z,994.31
2018-03-02T05:30:38.881Z,994.3
2018-03-02T05:31:48.861Z,994.28
2018-03-02T05:32:58.856Z,994.31
2018-03-02T05:34:08.566Z,994.3
2018-03-02T05:35:18.541Z,994.36
2018-03-02T05:36:28.522Z,994.36
2018-03-02T05:37:38.498Z,994.36
2018-03-02T05:38:48.215Z,994.31
2018-03-02T05:39:57.933Z,994.33
2018-03-02T05:41:07.386Z,994.29
2018-03-02T05:42:17.105Z,994.31
2018-03-02T05:43:27.090Z,994.26
2018-03-02T05:44:36.824Z,994.28
2018-03-02T05:45:46.536Z,994.29
2018-03-02T05:46:56.359Z,994.29
2018-03-02T05:48:06.080Z,994.28
2018-03-02T05:49:16.062Z,994.25
2018-03-02T05:50:25.771Z,994.19
2018-03-02T05:51:35.488Z,994.22
2018-03-02T05:52:45.500Z,994.21
2018-03-02T05:53:55.495Z,994.21
2018-03-02T05:55:05.206Z,994.19
2018-03-02T05:56:14.384Z,994.23
2018-03-02T05:57:23.828Z,994.21
2018-03-02T05:58:33.806Z,994.22
2018-03-02T05:59:43.791Z,994.2
2018-03-02T06:00:53.502Z,994.19
2018-03-02T06:02:03.484Z,994.19
2018-03-02T06:03:13.463Z,994.18
2018-03-02T06:04:23.183Z,994.2
2018-03-02T06:05:32.902Z,994.16
2018-03-02T06:06:42.881Z,994.14
2018-03-02T06:07:52.918Z,994.16
2018-03-02T06:09:02.908Z,994.12
2018-03-02T06:10:12.353Z,994.12
2018-03-02T06:11:22.338Z,994.15
2018-03-02T06:12:32.319Z,994.12
2018-03-02T06:13:42.300Z,994.07
2018-03-02T06:14:52.287Z,994.13
2018-03-02T06:16:02.268Z,994.12
2018-03-02T06:17:12.096Z,994.12
2018-03-02T06:18:22.077Z,994.12
2018-03-02T06:19:31.790Z,994.12
2018-03-02T06:20:41.768Z,994.1
2018-03-02T06:21:51.498Z,994.09
2018-03-02T06:23:00.951Z,994.02
2018-03-02T06:24:10.668Z,994.03
2018-03-02T06:25:20.395Z,994
2018-03-02T06:26:30.373Z,993.99
2018-03-02T06:27:40.347Z,993.98
2018-03-02T06:28:50.325Z,993.99
2018-03-02T06:30:00.305Z,993.98
2018-03-02T06:31:10.286Z,994
2018-03-02T06:32:20.007Z,994
2018-03-02T06:33:29.992Z,994.01
2018-03-02T06:34:39.968Z,993.96
2018-03-02T06:35:49.682Z,993.93
2018-03-02T06:36:59.670Z,993.89
2018-03-02T06:38:09.472Z,993.86
2018-03-02T06:39:19.456Z,993.85
2018-03-02T06:40:29.177Z,993.89
2018-03-02T06:41:39.153Z,993.9
2018-03-02T06:42:49.134Z,993.89
2018-03-02T06:43:58.580Z,993.85
2018-03-02T06:45:08.304Z,993.83
2018-03-02T06:46:18.033Z,993.77
2018-03-02T06:47:28.021Z,993.8
2018-03-02T06:48:38.010Z,993.78
2018-03-02T06:49:47.455Z,993.73
2018-03-02T06:50:57.178Z,993.77
2018-03-02T06:52:06.623Z,993.69
2018-03-02T06:53:16.338Z,993.72
2018-03-02T06:54:26.317Z,993.73
2018-03-02T06:55:36.307Z,993.7
2018-03-02T06:56:46.023Z,993.68
2018-03-02T06:57:56.005Z,993.66
2018-03-02T06:59:05.447Z,993.64
2018-03-02T07:00:15.421Z,993.65
2018-03-02T07:01:25.409Z,993.6
2018-03-02T07:02:35.123Z,993.61
2018-03-02T07:03:45.106Z,993.64
2018-03-02T07:04:54.557Z,993.64
2018-03-02T07:06:04.271Z,993.62
2018-03-02T07:07:13.990Z,993.62
2018-03-02T07:08:23.438Z,993.63
2018-03-02T07:09:32.880Z,993.58
2018-03-02T07:10:42.608Z,993.65
2018-03-02T07:11:52.320Z,993.66
2018-03-02T07:13:02.039Z,993.73
2018-03-02T07:14:12.018Z,993.73
2018-03-02T07:15:21.998Z,993.73
2018-03-02T07:16:31.981Z,993.74
2018-03-02T07:17:41.964Z,993.71
2018-03-02T07:18:51.414Z,993.68
2018-03-02T07:20:01.132Z,993.71
2018-03-02T07:21:11.221Z,993.68
2018-03-02T07:22:20.947Z,993.67
2018-03-02T07:23:30.658Z,993.66
2018-03-02T07:24:40.370Z,993.67
2018-03-02T07:25:50.352Z,993.66
2018-03-02T07:27:00.065Z,993.66
2018-03-02T07:28:09.794Z,993.67
2018-03-02T07:29:19.550Z,993.67
2018-03-02T07:30:29.099Z,993.59
2018-03-02T07:31:39.081Z,993.59
2018-03-02T07:32:48.796Z,993.65
2018-03-02T07:33:58.775Z,993.63
2018-03-02T07:35:08.775Z,993.63
2018-03-02T07:36:18.773Z,993.62
2018-03-02T07:37:28.759Z,993.58
2018-03-02T07:38:38.471Z,993.62
2018-03-02T07:39:48.456Z,993.57
2018-03-02T07:40:57.680Z,993.56
2018-03-02T07:42:07.661Z,993.52
2018-03-02T07:43:17.376Z,993.55
2018-03-02T07:44:27.191Z,993.5
2018-03-02T07:45:37.178Z,993.5
2018-03-02T07:46:46.892Z,993.43
2018-03-02T07:47:56.616Z,993.45
2018-03-02T07:49:06.608Z,993.49
2018-03-02T07:50:16.320Z,993.43
2018-03-02T07:51:26.039Z,993.44
2018-03-02T07:52:35.747Z,993.44
2018-03-02T07:53:45.729Z,993.46
2018-03-02T07:54:55.716Z,993.46
2018-03-02T07:56:05.437Z,993.46
2018-03-02T07:57:15.428Z,993.48
2018-03-02T07:58:24.878Z,993.43
2018-03-02T07:59:34.863Z,993.42
2018-03-02T08:00:44.581Z,993.43
2018-03-02T08:01:54.306Z,993.45
2018-03-02T08:03:04.288Z,993.45
2018-03-02T08:04:14.277Z,993.38
2018-03-02T08:05:24.301Z,993.39
2018-03-02T08:06:34.287Z,993.41
2018-03-02T08:07:44.019Z,993.41
2018-03-02T08:08:53.739Z,993.3
2018-03-02T08:10:03.723Z,993.34
2018-03-02T08:11:13.746Z,993.33
2018-03-02T08:12:23.462Z,993.33
2018-03-02T08:13:33.177Z,993.3
2018-03-02T08:14:43.167Z,993.3
2018-03-02T08:15:52.894Z,993.25
2018-03-02T08:17:02.890Z,993.23
2018-03-02T08:18:12.609Z,993.26
2018-03-02T08:19:22.591Z,993.26
2018-03-02T08:20:32.306Z,993.23
2018-03-02T08:21:42.293Z,993.28
2018-03-02T08:22:52.283Z,993.28
2018-03-02T08:24:02.272Z,993.27
2018-03-02T08:25:12.260Z,993.29
2018-03-02T08:26:22.248Z,993.25
2018-03-02T08:27:32.256Z,993.21
2018-03-02T08:28:41.972Z,993.22
2018-03-02T08:29:51.966Z,993.19
2018-03-02T08:31:01.956Z,993.13
2018-03-02T08:32:11.404Z,993.11
2018-03-02T08:33:21.389Z,993.15
2018-03-02T08:34:31.395Z,993.16
2018-03-02T08:35:41.109Z,993.15
2018-03-02T08:36:50.829Z,993.08
2018-03-02T08:38:00.820Z,993.13
2018-03-02T08:39:10.812Z,993.13
2018-03-02T08:40:20.301Z,993.11
2018-03-02T08:41:30.300Z,993.14
2018-03-02T08:42:40.286Z,993.11
2018-03-02T08:43:50.294Z,993.11
2018-03-02T08:45:00.018Z,993.15
2018-03-02T08:46:10.012Z,993.14
2018-03-02T08:47:19.464Z,993.12
2018-03-02T08:48:29.182Z,993.17
2018-03-02T08:49:39.163Z,993.11
2018-03-02T08:50:49.154Z,993.08
2018-03-02T08:51:58.603Z,993.09
2018-03-02T08:53:08.054Z,993.13
2018-03-02T08:54:18.138Z,993.09
2018-03-02T08:55:27.853Z,993.07
2018-03-02T08:56:37.830Z,993.03
2018-03-02T08:57:47.837Z,993.02
2018-03-02T08:58:57.915Z,993
2018-03-02T09:00:07.484Z,992.99
2018-03-02T09:01:17.528Z,992.99
2018-03-02T09:02:27.265Z,993.01
2018-03-02T09:03:36.993Z,992.95
2018-03-02T09:04:46.988Z,992.99
2018-03-02T09:05:56.703Z,993
2018-03-02T09:07:06.433Z,992.98
2018-03-02T09:08:16.154Z,993
2018-03-02T09:09:26.144Z,992.93
2018-03-02T09:10:36.129Z,992.97
2018-03-02T09:11:45.896Z,992.96
2018-03-02T09:12:55.444Z,992.98
2018-03-02T09:14:05.163Z,992.94
2018-03-02T09:15:14.881Z,992.97
2018-03-02T09:16:24.333Z,992.94
2018-03-02T09:17:34.051Z,992.93
2018-03-02T09:18:43.504Z,992.92
2018-03-02T09:19:53.488Z,992.9
2018-03-02T09:21:03.211Z,992.86
2018-03-02T09:22:12.953Z,992.87
2018-03-02T09:23:22.423Z,992.81
2018-03-02T09:24:32.423Z,992.8
2018-03-02T09:25:42.411Z,992.79
2018-03-02T09:26:52.395Z,992.77
2018-03-02T09:28:02.383Z,992.74
2018-03-02T09:29:12.368Z,992.81
2018-03-02T09:30:22.358Z,992.77
2018-03-02T09:31:31.812Z,992.72
2018-03-02T09:32:41.534Z,992.69
2018-03-02T09:33:51.270Z,992.67
2018-03-02T09:35:00.721Z,992.69
2018-03-02T09:36:10.440Z,992.68
2018-03-02T09:37:20.205Z,992.63
2018-03-02T09:38:29.942Z,992.63
2018-03-02T09:39:39.662Z,992.64
2018-03-02T09:40:49.652Z,992.61
2018-03-02T09:41:59.118Z,992.59
2018-03-02T09:43:09.167Z,992.59
2018-03-02T09:44:19.154Z,992.59
2018-03-02T09:45:28.879Z,992.57
2018-03-02T09:46:38.605Z,992.54
2018-03-02T09:47:48.602Z,992.54
2018-03-02T09:48:58.588Z,992.51
2018-03-02T09:50:08.364Z,992.52
2018-03-02T09:51:18.104Z,992.49
2018-03-02T09:52:27.560Z,992.55
2018-03-02T09:53:37.545Z,992.55
2018-03-02T09:54:47.271Z,992.53
2018-03-02T09:55:57.278Z,992.53
2018-03-02T09:57:07.271Z,992.58
2018-03-02T09:58:17.016Z,992.53
2018-03-02T09:59:27.013Z,992.57
2018-03-02T10:00:37.000Z,992.51
2018-03-02T10:01:46.986Z,992.5
2018-03-02T10:02:56.975Z,992.5
2018-03-02T10:04:06.986Z,992.52
2018-03-02T10:05:16.712Z,992.49
2018-03-02T10:06:26.437Z,992.44
2018-03-02T10:07:36.156Z,992.42
2018-03-02T10:08:45.614Z,992.43
2018-03-02T10:09:55.065Z,992.41
2018-03-02T10:11:05.052Z,992.48
2018-03-02T10:12:15.045Z,992.47
2018-03-02T10:13:25.041Z,992.43
2018-03-02T10:14:34.762Z,992.44
2018-03-02T10:15:44.577Z,992.38
2018-03-02T10:16:54.299Z,992.41
2018-03-02T10:18:04.356Z,992.42
2018-03-02T10:19:14.348Z,992.39
2018-03-02T10:20:23.801Z,992.32
2018-03-02T10:21:33.805Z,992.29
2018-03-02T10:22:43.803Z,992.31
2018-03-02T10:23:53.795Z,992.32
2018-03-02T10:25:03.782Z,992.27
2018-03-02T10:26:13.505Z,992.29
2018-03-02T10:27:23.493Z,992.29
2018-03-02T10:28:33.480Z,992.31
2018-03-02T10:29:42.927Z,992.31
2018-03-02T10:30:52.921Z,992.32
2018-03-02T10:32:02.647Z,992.27
2018-03-02T10:33:12.707Z,992.27
2018-03-02T10:34:22.700Z,992.27
2018-03-02T10:35:32.427Z,992.28
2018-03-02T10:36:42.500Z,992.21
2018-03-02T10:37:52.221Z,992.23
2018-03-02T10:39:01.806Z,992.2
2018-03-02T10:40:11.795Z,992.25
2018-03-02T10:41:21.257Z,992.25
2018-03-02T10:42:31.041Z,992.22
2018-03-02T10:43:41.027Z,992.21
2018-03-02T10:44:50.483Z,992.15
2018-03-02T10:46:00.206Z,992.15
2018-03-02T10:47:09.663Z,992.06
2018-03-02T10:48:19.386Z,992.06
2018-03-02T10:49:29.377Z,992.06
2018-03-02T10:50:39.368Z,992.03
2018-03-02T10:51:49.354Z,991.99
2018-03-02T10:52:59.079Z,991.99
2018-03-02T10:54:09.068Z,992.01
2018-03-02T10:55:18.525Z,992
2018-03-02T10:56:28.260Z,991.99
2018-03-02T10:57:38.261Z,991.98
2018-03-02T10:58:48.015Z,991.95
2018-03-02T10:59:57.735Z,991.92
2018-03-02T11:01:06.922Z,991.89
2018-03-02T11:02:16.950Z,991.88
2018-03-02T11:03:26.144Z,991.84
2018-03-02T11:04:36.139Z,991.84
2018-03-02T11:05:45.605Z,991.83
2018-03-02T11:06:55.599Z,991.8
2018-03-02T11:08:05.328Z,991.83
2018-03-02T11:09:15.059Z,991.76
2018-03-02T11:10:24.783Z,991.8
2018-03-02T11:11:34.510Z,991.75
2018-03-02T11:12:44.503Z,991.7
2018-03-02T11:13:53.962Z,991.65
2018-03-02T11:15:03.955Z,991.71
2018-03-02T11:16:13.415Z,991.69
2018-03-02T11:17:23.144Z,991.65
2018-03-02T11:18:32.862Z,991.62
2018-03-02T11:19:42.320Z,991.54
2018-03-02T11:20:52.046Z,991.55
2018-03-02T11:22:01.807Z,991.55
2018-03-02T11:23:11.539Z,991.56
2018-03-02T11:24:21.537Z,991.57
2018-03-02T11:25:31.103Z,991.51
2018-03-02T11:26:40.831Z,991.52
2018-03-02T11:27:50.824Z,991.48
2018-03-02T11:29:00.818Z,991.51
2018-03-02T11:30:10.284Z,991.48
2018-03-02T11:31:20.272Z,991.51
2018-03-02T11:32:29.999Z,991.44
2018-03-02T11:33:39.992Z,991.51
2018-03-02T11:34:49.722Z,991.5
2018-03-02T11:35:59.720Z,991.46
2018-03-02T11:37:09.726Z,991.44
2018-03-02T11:38:19.729Z,991.44
2018-03-02T11:39:28.917Z,991.43
2018-03-02T11:40:38.955Z,991.44
2018-03-02T11:41:48.482Z,991.43
2018-03-02T11:42:58.209Z,991.42
2018-03-02T11:44:07.676Z,991.41
2018-03-02T11:45:17.672Z,991.38
2018-03-02T11:46:27.698Z,991.31
2018-03-02T11:47:37.422Z,991.3
2018-03-02T11:48:47.256Z,991.29
2018-03-02T11:49:57.262Z,991.25
2018-03-02T11:51:06.993Z,991.24
2018-03-02T11:52:16.724Z,991.23
2018-03-02T11:53:26.456Z,991.23
2018-03-02T11:54:36.456Z,991.28
2018-03-02T11:55:46.452Z,991.21
2018-03-02T11:56:56.184Z,991.21
2018-03-02T11:58:05.927Z,991.15
2018-03-02T11:59:15.656Z,991.08
2018-03-02T12:00:25.715Z,991.07
2018-03-02T12:01:35.450Z,991.03
2018-03-02T12:02:45.448Z,991.01
2018-03-02T12:03:55.200Z,990.95
2018-03-02T12:05:04.666Z,990.96
2018-03-02T12:06:13.860Z,990.95
2018-03-02T12:07:23.323Z,990.95
2018-03-02T12:08:33.070Z,990.96
2018-03-02T12:09:43.065Z,990.92
2018-03-02T12:10:52.787Z,990.91
2018-03-02T12:12:02.879Z,990.89
2018-03-02T12:13:12.645Z,990.86
2018-03-02T12:14:22.645Z,990.82
2018-03-02T12:15:32.643Z,990.83
2018-03-02T12:16:42.392Z,990.76
2018-03-02T12:17:52.546Z,990.78
2018-03-02T12:19:02.276Z,990.76
2018-03-02T12:20:12.283Z,990.72
2018-03-02T12:21:22.031Z,990.63
2018-03-02T12:22:31.509Z,990.67
2018-03-02T12:23:41.746Z,990.63
2018-03-02T12:24:51.224Z,990.63
2018-03-02T12:26:00.946Z,990.63
2018-03-02T12:27:10.938Z,990.6
2018-03-02T12:28:20.403Z,990.5
2018-03-02T12:29:30.284Z,990.52
2018-03-02T12:30:40.013Z,990.51
2018-03-02T12:31:49.478Z,990.55
2018-03-02T12:32:59.478Z,990.5
2018-03-02T12:34:09.513Z,990.52
2018-03-02T12:35:18.976Z,990.54
2018-03-02T12:36:28.441Z,990.48
2018-03-02T12:37:38.656Z,990.5
2018-03-02T12:38:48.437Z,990.47
2018-03-02T12:39:58.212Z,990.39
2018-03-02T12:41:07.944Z,990.39
2018-03-02T12:42:17.660Z,990.39
2018-03-02T12:43:27.647Z,990.39
2018-03-02T12:44:37.402Z,990.4
2018-03-02T12:45:47.186Z,990.39
2018-03-02T12:46:57.174Z,990.36
2018-03-02T12:48:07.181Z,990.3
2018-03-02T12:49:17.222Z,990.32
2018-03-02T12:50:27.041Z,990.29
2018-03-02T12:51:36.761Z,990.27
2018-03-02T12:52:46.486Z,990.29
2018-03-02T12:53:56.254Z,990.28
2018-03-02T12:55:06.340Z,990.24
2018-03-02T12:56:16.335Z,990.22
2018-03-02T12:57:26.333Z,990.24
2018-03-02T12:58:36.324Z,990.25
2018-03-02T12:59:46.048Z,990.18
2018-03-02T13:00:56.051Z,990.19
2018-03-02T13:02:06.039Z,990.1
2018-03-02T13:03:15.496Z,990.05
2018-03-02T13:04:25.226Z,990.06
2018-03-02T13:05:35.216Z,990.03
2018-03-02T13:06:44.941Z,990
2018-03-02T13:07:54.669Z,989.95
2018-03-02T13:09:04.663Z,989.91
2018-03-02T13:10:14.425Z,989.89
2018-03-02T13:11:24.150Z,989.88
2018-03-02T13:12:34.143Z,989.91
2018-03-02T13:13:43.600Z,989.92
2018-03-02T13:14:53.336Z,989.9
2018-03-02T13:16:02.797Z,989.91
2018-03-02T13:17:12.530Z,989.91
2018-03-02T13:18:21.988Z,989.9
2018-03-02T13:19:31.449Z,989.87
2018-03-02T13:20:41.447Z,989.85
2018-03-02T13:21:51.171Z,989.79
2018-03-02T13:23:00.902Z,989.78
2018-03-02T13:24:10.891Z,989.73
2018-03-02T13:25:20.630Z,989.75
2018-03-02T13:26:30.635Z,989.72
2018-03-02T13:27:40.633Z,989.76
2018-03-02T13:28:50.627Z,989.76
2018-03-02T13:30:00.356Z,989.75
2018-03-02T13:31:10.422Z,989.75
2018-03-02T13:32:19.878Z,989.68
2018-03-02T13:33:29.606Z,989.64
2018-03-02T13:34:39.597Z,989.65
2018-03-02T13:35:49.594Z,989.6
2018-03-02T13:36:59.321Z,989.63
2018-03-02T13:38:09.049Z,989.66
2018-03-02T13:39:18.879Z,989.71
2018-03-02T13:40:28.357Z,989.66
2018-03-02T13:41:37.823Z,989.65
2018-03-02T13:42:47.817Z,989.63
2018-03-02T13:43:57.570Z,989.61
2018-03-02T13:45:07.344Z,989.63
2018-03-02T13:46:17.338Z,989.62
2018-03-02T13:47:27.341Z,989.62
2018-03-02T13:48:36.800Z,989.66
2018-03-02T13:49:46.796Z,989.64
2018-03-02T13:50:56.529Z,989.64
2018-03-02T13:52:05.454Z,989.64
2018-03-02T13:53:14.647Z,989.61
2018-03-02T13:54:23.839Z,989.59
2018-03-02T13:55:33.563Z,989.58
2018-03-02T13:56:43.292Z,989.6
2018-03-02T13:57:53.283Z,989.56
2018-03-02T13:59:02.477Z,989.57
2018-03-02T14:00:12.208Z,989.59
2018-03-02T14:01:22.003Z,989.57
2018-03-02T14:02:32.007Z,989.53
2018-03-02T14:03:41.738Z,989.52
2018-03-02T14:04:51.473Z,989.47
2018-03-02T14:06:01.196Z,989.41
2018-03-02T14:07:10.930Z,989.38
2018-03-02T14:08:20.660Z,989.35
2018-03-02T14:09:30.654Z,989.31
2018-03-02T14:10:40.648Z,989.34
2018-03-02T14:11:50.645Z,989.29
2018-03-02T14:13:00.370Z,989.25
2018-03-02T14:14:10.463Z,989.21
2018-03-02T14:15:20.242Z,989.22
2018-03-02T14:16:29.965Z,989.13
2018-03-02T14:17:39.688Z,989.13
2018-03-02T14:18:49.417Z,989.11
2018-03-02T14:19:59.415Z,989.1
2018-03-02T14:21:09.157Z,989.09
2018-03-02T14:22:18.621Z,989.08
2018-03-02T14:23:28.618Z,989.09
2018-03-02T14:24:38.616Z,989.05
2018-03-02T14:25:48.613Z,989.03
2018-03-02T14:26:58.617Z,989.06
2018-03-02T14:28:08.341Z,989.04
2018-03-02T14:29:18.066Z,989.07
2018-03-02T14:30:27.831Z,989.05
2018-03-02T14:31:37.880Z,989.08
2018-03-02T14:32:47.604Z,989.02
2018-03-02T14:33:57.067Z,989.03
2018-03-02T14:35:07.121Z,989
2018-03-02T14:36:16.846Z,988.97
2018-03-02T14:37:26.583Z,988.93
2018-03-02T14:38:36.574Z,988.95